Time;durP1;ratioP1;P1;durP2;ratioP2;P2;SDS_P1;SDS_P2;PMS_P1;PMS_P2;Temp;Humidity;BMP_temperature;BMP_pressure;BME280_temperature;BME280_humidity;BME280_pressure;Samples;Min_cycle;Max_cycle;Signal;HPM_P1;HPM_P2
2021/08/24 00:01:28;;;;;;;6.00;3.35;;;;;;;;;;4347494;33;20523;-79
2021/08/24 00:03:53;;;;;;;4.93;3.08;;;;;;;;;;4337914;33;20156;-80
2021/08/24 00:06:18;;;;;;;7.68;3.53;;;;;;;;;;4346290;33;20534;-80
2021/08/24 00:08:44;;;;;;;6.10;3.37;;;;;;;;;;4332259;33;20634;-80
2021/08/24 00:11:10;;;;;;;5.50;3.40;;;;;;;;;;4332942;33;20182;-80
2021/08/24 00:13:35;;;;;;;5.82;2.75;;;;;;;;;;4336761;33;20155;-79
2021/08/24 00:16:01;;;;;;;5.95;3.30;;;;;;;;;;4332361;33;20499;-80
2021/08/24 00:18:26;;;;;;;5.00;3.10;;;;;;;;;;4338339;33;20589;-80
2021/08/24 00:20:52;;;;;;;6.37;3.10;;;;;;;;;;4347888;33;20612;-80
2021/08/24 00:23:19;;;;;;;7.43;3.17;;;;;;;;;;4346915;33;20163;-79
2021/08/24 00:25:46;;;;;;;5.18;3.30;;;;;;;;;;4335908;33;20170;-79
2021/08/24 00:28:12;;;;;;;6.00;3.00;;;;;;;;;;4345115;33;20177;-79
2021/08/24 00:30:38;;;;;;;4.72;2.87;;;;;;;;;;4335712;33;20565;-79
2021/08/24 00:33:04;;;;;;;6.12;3.22;;;;;;;;;;4332089;33;20152;-80
2021/08/24 00:35:29;;;;;;;6.72;3.42;;;;;;;;;;4331996;33;20257;-79
2021/08/24 00:37:55;;;;;;;6.22;3.17;;;;;;;;;;4332698;33;20156;-80
2021/08/24 00:40:21;;;;;;;8.25;3.22;;;;;;;;;;4331885;33;20159;-79
2021/08/24 00:42:46;;;;;;;7.68;3.47;;;;;;;;;;4331948;33;20218;-79
2021/08/24 00:45:13;;;;;;;5.35;3.30;;;;;;;;;;4340123;33;20185;-80
2021/08/24 00:47:40;;;;;;;5.18;3.30;;;;;;;;;;4347080;33;20558;-79
2021/08/24 00:50:26;;;;;;;4.45;3.40;;;;;;;;;;4346423;33;20167;-80
2021/08/24 00:52:52;;;;;;;4.95;3.50;;;;;;;;;;4348994;32;20159;-79
2021/08/24 00:55:19;;;;;;;5.50;3.72;;;;;;;;;;4331984;33;20492;-79
2021/08/24 00:57:47;;;;;;;7.28;3.50;;;;;;;;;;4331856;33;20472;-79
2021/08/24 01:00:13;;;;;;;6.30;3.45;;;;;;;;;;4334525;33;20204;-79
2021/08/24 01:02:39;;;;;;;5.15;2.92;;;;;;;;;;4333191;33;20474;-80
2021/08/24 01:05:05;;;;;;;3.78;3.10;;;;;;;;;;4332375;33;20218;-80
2021/08/24 01:07:37;;;;;;;7.35;3.87;;;;;;;;;;4349204;33;20140;-80
2021/08/24 01:10:23;;;;;;;5.32;3.35;;;;;;;;;;4340251;33;20178;-81
2021/08/24 01:12:51;;;;;;;7.35;3.65;;;;;;;;;;4358375;33;20127;-80
2021/08/24 01:15:19;;;;;;;7.20;3.97;;;;;;;;;;4346156;33;20238;-80
2021/08/24 01:17:44;;;;;;;4.87;3.72;;;;;;;;;;4346848;33;20207;-80
2021/08/24 01:20:36;;;;;;;7.15;3.58;;;;;;;;;;4348579;33;20588;-80
2021/08/24 01:23:10;;;;;;;6.05;3.60;;;;;;;;;;4349904;33;20155;-79
2021/08/24 01:25:45;;;;;;;4.55;3.20;;;;;;;;;;4349683;33;20182;-79
2021/08/24 01:28:22;;;;;;;4.95;3.45;;;;;;;;;;4352058;32;20193;-79
2021/08/24 01:31:11;;;;;;;5.35;3.53;;;;;;;;;;4362869;33;20582;-79
2021/08/24 01:33:55;;;;;;;5.60;3.35;;;;;;;;;;4361715;33;20658;-79
2021/08/24 01:36:26;;;;;;;4.47;3.50;;;;;;;;;;4360464;32;20155;-79
2021/08/24 01:38:57;;;;;;;6.57;3.35;;;;;;;;;;4348548;33;20155;-79
2021/08/24 01:41:27;;;;;;;5.20;3.50;;;;;;;;;;4337937;33;20238;-80
2021/08/24 01:44:04;;;;;;;7.12;3.78;;;;;;;;;;4347019;33;20147;-79
2021/08/24 01:46:29;;;;;;;9.38;3.80;;;;;;;;;;4347032;33;20194;-79
2021/08/24 01:49:02;;;;;;;6.03;3.58;;;;;;;;;;4351340;33;20224;-79
2021/08/24 01:51:30;;;;;;;6.10;3.83;;;;;;;;;;4362676;32;20147;-79
2021/08/24 01:54:00;;;;;;;9.73;3.80;;;;;;;;;;4348966;33;20626;-79
2021/08/24 01:56:29;;;;;;;5.87;3.30;;;;;;;;;;4349126;33;20189;-79
2021/08/24 01:59:01;;;;;;;7.28;4.00;;;;;;;;;;4362429;32;20165;-79
2021/08/24 02:01:46;;;;;;;5.45;3.80;;;;;;;;;;4345714;33;20159;-79
2021/08/24 02:04:16;;;;;;;6.93;3.87;;;;;;;;;;4348572;33;20182;-79
2021/08/24 02:06:43;;;;;;;6.15;3.90;;;;;;;;;;4359327;32;20140;-79
2021/08/24 02:09:12;;;;;;;7.75;3.75;;;;;;;;;;4346584;33;20160;-79
2021/08/24 02:11:38;;;;;;;6.60;3.65;;;;;;;;;;4347682;33;20132;-79
2021/08/24 02:14:07;;;;;;;7.07;4.00;;;;;;;;;;4353705;33;20189;-79
2021/08/24 02:16:33;;;;;;;5.40;4.07;;;;;;;;;;4361160;32;20270;-79
2021/08/24 02:19:05;;;;;;;7.57;3.90;;;;;;;;;;4362122;32;20139;-79
2021/08/24 02:21:32;;;;;;;6.28;4.05;;;;;;;;;;4361589;32;20159;-79
2021/08/24 02:23:59;;;;;;;9.77;4.68;;;;;;;;;;4361117;33;20152;-79
2021/08/24 02:26:29;;;;;;;7.68;4.30;;;;;;;;;;4362462;33;20161;-79
2021/08/24 02:28:56;;;;;;;8.60;4.25;;;;;;;;;;4340792;33;20159;-79
2021/08/24 02:31:21;;;;;;;9.15;4.68;;;;;;;;;;4341214;33;20159;-79
2021/08/24 02:34:10;;;;;;;8.70;4.43;;;;;;;;;;4348606;33;20182;-79
2021/08/24 02:36:37;;;;;;;6.90;4.22;;;;;;;;;;4345831;33;20278;-78
2021/08/24 02:39:04;;;;;;;8.55;4.80;;;;;;;;;;4347503;33;20545;-79
2021/08/24 02:41:33;;;;;;;8.75;5.10;;;;;;;;;;4333495;33;20261;-79
2021/08/24 02:43:58;;;;;;;8.32;5.00;;;;;;;;;;4344373;33;20221;-79
2021/08/24 02:46:27;;;;;;;7.68;4.30;;;;;;;;;;4362366;32;20139;-79
2021/08/24 02:49:03;;;;;;;11.23;4.93;;;;;;;;;;4348756;33;20160;-79
2021/08/24 02:51:32;;;;;;;10.45;5.20;;;;;;;;;;4362160;32;20594;-79
2021/08/24 02:54:00;;;;;;;8.02;5.22;;;;;;;;;;4362106;32;20131;-79
2021/08/24 02:56:26;;;;;;;10.20;5.20;;;;;;;;;;4346936;33;20164;-79
2021/08/24 02:58:53;;;;;;;6.75;5.07;;;;;;;;;;4333929;33;20189;-79
2021/08/24 03:01:26;;;;;;;11.68;5.10;;;;;;;;;;4338853;33;20284;-79
2021/08/24 03:03:51;;;;;;;9.00;4.87;;;;;;;;;;4347863;33;20175;-79
2021/08/24 03:06:19;;;;;;;10.63;5.12;;;;;;;;;;4359956;32;20183;-79
2021/08/24 03:08:45;;;;;;;10.20;5.90;;;;;;;;;;4347916;32;20480;-79
2021/08/24 03:11:14;;;;;;;10.15;5.53;;;;;;;;;;4361905;32;20131;-78
2021/08/24 03:13:45;;;;;;;9.15;5.28;;;;;;;;;;4347796;33;20228;-79
2021/08/24 03:16:23;;;;;;;9.77;5.70;;;;;;;;;;4348167;33;20158;-79
2021/08/24 03:18:54;;;;;;;11.23;5.85;;;;;;;;;;4361418;32;20150;-78
2021/08/24 03:21:22;;;;;;;10.25;5.57;;;;;;;;;;4361698;32;20197;-78
2021/08/24 03:23:48;;;;;;;9.10;5.97;;;;;;;;;;4348201;33;20155;-78
2021/08/24 03:26:14;;;;;;;10.48;5.20;;;;;;;;;;4347653;33;20289;-80
2021/08/24 03:28:40;;;;;;;9.43;5.37;;;;;;;;;;4361195;32;20162;-79
2021/08/24 03:31:07;;;;;;;8.52;5.57;;;;;;;;;;4345468;33;20186;-80
2021/08/24 03:33:33;;;;;;;11.43;5.97;;;;;;;;;;4359605;32;20190;-80
2021/08/24 03:35:58;;;;;;;11.43;6.32;;;;;;;;;;4361512;32;20553;-79
2021/08/24 03:38:23;;;;;;;10.63;6.03;;;;;;;;;;4347642;32;20534;-79
2021/08/24 03:40:48;;;;;;;10.43;5.27;;;;;;;;;;4332895;33;20194;-79
2021/08/24 03:43:14;;;;;;;11.82;5.95;;;;;;;;;;4358547;32;20258;-79
2021/08/24 03:45:39;;;;;;;11.95;6.05;;;;;;;;;;4361271;32;20167;-78
2021/08/24 03:48:04;;;;;;;10.93;6.25;;;;;;;;;;4361679;32;20185;-78
2021/08/24 03:50:29;;;;;;;11.93;5.85;;;;;;;;;;4359630;32;20597;-79
2021/08/24 03:52:55;;;;;;;11.45;5.85;;;;;;;;;;4361612;32;20132;-78
2021/08/24 03:55:20;;;;;;;12.90;6.35;;;;;;;;;;4347515;33;20151;-79
2021/08/24 03:57:46;;;;;;;8.32;5.30;;;;;;;;;;4360818;32;20135;-79
2021/08/24 04:00:12;;;;;;;10.07;5.60;;;;;;;;;;4347383;33;20496;-79
2021/08/24 04:02:37;;;;;;;9.40;5.78;;;;;;;;;;4361468;32;20489;-78
2021/08/24 04:05:03;;;;;;;16.60;5.72;;;;;;;;;;4361083;32;20477;-78
2021/08/24 04:07:29;;;;;;;10.43;5.47;;;;;;;;;;4347283;33;20600;-80
2021/08/24 04:09:55;;;;;;;9.85;5.65;;;;;;;;;;4361442;32;20177;-79
2021/08/24 04:12:20;;;;;;;10.32;6.37;;;;;;;;;;4360829;32;20135;-79
2021/08/24 04:14:45;;;;;;;10.10;6.00;;;;;;;;;;4359320;32;20253;-78
2021/08/24 04:17:10;;;;;;;13.10;6.10;;;;;;;;;;4348255;32;20189;-79
2021/08/24 04:19:36;;;;;;;11.85;6.28;;;;;;;;;;4346747;32;20649;-79
2021/08/24 04:22:04;;;;;;;10.30;5.65;;;;;;;;;;4346918;33;20171;-78
2021/08/24 04:24:30;;;;;;;13.35;6.60;;;;;;;;;;4360484;32;20225;-79
2021/08/24 04:26:55;;;;;;;11.40;6.60;;;;;;;;;;4360603;32;20154;-79
2021/08/24 04:29:21;;;;;;;11.20;6.85;;;;;;;;;;4349801;33;20185;-78
2021/08/24 04:31:46;;;;;;;12.48;6.90;;;;;;;;;;4339074;33;20155;-78
2021/08/24 04:34:12;;;;;;;12.98;7.28;;;;;;;;;;4344683;32;20497;-80
2021/08/24 04:36:37;;;;;;;10.48;6.90;;;;;;;;;;4344922;33;20208;-77
2021/08/24 04:39:03;;;;;;;19.33;7.90;;;;;;;;;;4332446;33;20183;-79
2021/08/24 04:41:30;;;;;;;16.35;7.55;;;;;;;;;;4356333;33;20193;-78
2021/08/24 04:43:56;;;;;;;13.70;8.15;;;;;;;;;;4359102;32;20226;-78
2021/08/24 04:46:23;;;;;;;14.27;7.50;;;;;;;;;;4358347;33;20489;-78
2021/08/24 04:48:48;;;;;;;16.70;7.82;;;;;;;;;;4334293;33;20181;-79
2021/08/24 04:51:13;;;;;;;14.17;7.23;;;;;;;;;;4344463;33;20172;-78
2021/08/24 04:53:38;;;;;;;14.45;7.97;;;;;;;;;;4345683;33;20264;-78
2021/08/24 04:56:04;;;;;;;15.25;8.05;;;;;;;;;;4334984;33;20175;-77
2021/08/24 04:58:30;;;;;;;17.60;9.25;;;;;;;;;;4330979;33;20602;-78
2021/08/24 05:00:55;;;;;;;14.52;8.05;;;;;;;;;;4329297;33;20164;-79
2021/08/24 05:03:20;;;;;;;15.90;9.02;;;;;;;;;;4329446;33;20184;-78
2021/08/24 05:05:45;;;;;;;14.68;8.65;;;;;;;;;;4341129;33;20156;-76
2021/08/24 05:08:11;;;;;;;18.55;8.88;;;;;;;;;;4345193;33;20423;-80
2021/08/24 05:10:37;;;;;;;15.82;8.38;;;;;;;;;;4342670;33;20139;-79
2021/08/24 05:13:02;;;;;;;19.55;9.68;;;;;;;;;;4329847;33;20231;-79
2021/08/24 05:15:28;;;;;;;16.48;9.13;;;;;;;;;;4334129;33;20621;-79
2021/08/24 05:17:53;;;;;;;17.73;9.18;;;;;;;;;;4356217;33;20159;-78
2021/08/24 05:20:19;;;;;;;13.62;9.00;;;;;;;;;;4352357;33;20330;-80
2021/08/24 05:22:45;;;;;;;13.70;8.40;;;;;;;;;;4352717;33;20238;-77
2021/08/24 05:25:11;;;;;;;15.60;9.65;;;;;;;;;;4341464;33;20695;-80
2021/08/24 05:27:36;;;;;;;14.50;8.07;;;;;;;;;;4341066;33;20225;-79
2021/08/24 05:30:07;;;;;;;14.70;8.30;;;;;;;;;;4346096;33;20249;-79
2021/08/24 05:32:32;;;;;;;15.30;8.38;;;;;;;;;;4352371;33;20155;-79
2021/08/24 05:34:57;;;;;;;13.82;7.80;;;;;;;;;;4343871;33;20209;-79
2021/08/24 05:37:23;;;;;;;12.27;8.20;;;;;;;;;;4350486;33;20189;-79
2021/08/24 05:39:48;;;;;;;15.23;8.38;;;;;;;;;;4340312;33;20605;-79
2021/08/24 05:42:14;;;;;;;12.45;7.85;;;;;;;;;;4340997;33;20213;-80
2021/08/24 05:44:41;;;;;;;19.08;8.80;;;;;;;;;;4335796;33;20219;-80
2021/08/24 05:47:06;;;;;;;14.43;8.23;;;;;;;;;;4337769;33;20241;-79
2021/08/24 05:49:35;;;;;;;15.43;8.20;;;;;;;;;;4341376;33;20144;-79
2021/08/24 05:52:00;;;;;;;14.43;8.45;;;;;;;;;;4347797;33;20680;-80
2021/08/24 05:54:27;;;;;;;13.18;8.43;;;;;;;;;;4353948;33;20225;-79
2021/08/24 05:56:52;;;;;;;14.05;8.20;;;;;;;;;;4338492;33;20213;-80
2021/08/24 05:59:17;;;;;;;12.95;7.93;;;;;;;;;;4354571;33;20171;-80
2021/08/24 06:01:42;;;;;;;13.13;7.22;;;;;;;;;;4344324;33;20175;-79
2021/08/24 06:04:08;;;;;;;12.57;6.43;;;;;;;;;;4328969;33;20186;-80
2021/08/24 06:06:34;;;;;;;13.77;7.10;;;;;;;;;;4347542;33;20190;-79
2021/08/24 06:09:00;;;;;;;10.43;6.70;;;;;;;;;;4348711;33;20225;-79
2021/08/24 06:11:27;;;;;;;12.27;6.78;;;;;;;;;;4342823;33;20163;-78
2021/08/24 06:13:53;;;;;;;12.70;6.18;;;;;;;;;;4348246;33;20159;-79
2021/08/24 06:16:19;;;;;;;12.88;6.62;;;;;;;;;;4358237;32;20202;-79
2021/08/24 06:18:44;;;;;;;14.30;6.62;;;;;;;;;;4357529;32;20227;-79
2021/08/24 06:21:10;;;;;;;11.38;6.18;;;;;;;;;;4342743;33;20190;-80
2021/08/24 06:23:40;;;;;;;10.85;5.90;;;;;;;;;;4345334;33;20589;-79
2021/08/24 06:26:05;;;;;;;10.68;5.80;;;;;;;;;;4346100;33;20159;-79
2021/08/24 06:28:31;;;;;;;13.32;6.10;;;;;;;;;;4337996;33;20190;-79
2021/08/24 06:30:58;;;;;;;8.88;5.68;;;;;;;;;;4330925;33;20160;-79
2021/08/24 06:33:26;;;;;;;10.20;5.47;;;;;;;;;;4334900;33;20473;-79
2021/08/24 06:35:51;;;;;;;12.30;5.53;;;;;;;;;;4345738;33;20135;-79
2021/08/24 06:38:18;;;;;;;10.07;5.78;;;;;;;;;;4339286;33;20221;-79
2021/08/24 06:40:46;;;;;;;11.00;5.57;;;;;;;;;;4345609;33;20194;-78
2021/08/24 06:43:11;;;;;;;11.00;5.37;;;;;;;;;;4346064;33;20194;-78
2021/08/24 06:45:36;;;;;;;13.45;5.70;;;;;;;;;;4342438;33;20190;-79
2021/08/24 06:48:02;;;;;;;10.90;5.55;;;;;;;;;;4330897;33;20218;-79
2021/08/24 06:50:28;;;;;;;12.80;4.65;;;;;;;;;;4337450;33;20155;-79
2021/08/24 06:52:54;;;;;;;9.98;5.37;;;;;;;;;;4342439;33;20160;-78
2021/08/24 06:55:19;;;;;;;8.88;5.05;;;;;;;;;;4334339;33;20289;-80
2021/08/24 06:57:44;;;;;;;5.90;4.50;;;;;;;;;;4347013;33;20151;-79
2021/08/24 07:00:21;;;;;;;12.35;5.70;;;;;;;;;;4346308;33;20255;-80
2021/08/24 07:02:46;;;;;;;7.45;4.95;;;;;;;;;;4334150;33;20427;-79
2021/08/24 07:05:12;;;;;;;11.98;4.80;;;;;;;;;;4346983;33;20217;-79
2021/08/24 07:07:37;;;;;;;12.52;4.70;;;;;;;;;;4347668;33;20167;-79
2021/08/24 07:10:04;;;;;;;7.47;4.93;;;;;;;;;;4347677;33;20221;-79
2021/08/24 07:12:29;;;;;;;10.88;5.18;;;;;;;;;;4348171;33;20206;-80
2021/08/24 07:14:55;;;;;;;9.60;4.90;;;;;;;;;;4348024;33;20209;-80
2021/08/24 07:17:29;;;;;;;8.20;4.35;;;;;;;;;;4347931;33;20171;-79
2021/08/24 07:20:04;;;;;;;;;;;;;;;;;;;;;
2021/08/24 07:22:30;;;;;;;9.63;4.85;;;;;;;;;;4359576;32;20503;-79
2021/08/24 07:24:56;;;;;;;7.97;4.50;;;;;;;;;;4337977;33;20159;-79
2021/08/24 07:27:21;;;;;;;8.13;4.40;;;;;;;;;;4343392;33;20212;-79
2021/08/24 07:29:46;;;;;;;6.57;4.80;;;;;;;;;;4347666;33;20178;-79
2021/08/24 07:32:14;;;;;;;9.75;4.40;;;;;;;;;;4349329;33;20159;-79
2021/08/24 07:34:41;;;;;;;6.43;3.75;;;;;;;;;;4346923;33;20178;-80
2021/08/24 07:37:07;;;;;;;9.43;4.50;;;;;;;;;;4347315;33;20186;-79
2021/08/24 07:39:32;;;;;;;7.32;4.25;;;;;;;;;;4346004;33;20155;-79
2021/08/24 07:41:57;;;;;;;8.52;4.18;;;;;;;;;;4332696;33;20190;-80
2021/08/24 07:44:24;;;;;;;10.63;3.95;;;;;;;;;;4335052;33;20147;-79
2021/08/24 07:46:51;;;;;;;7.03;3.60;;;;;;;;;;4332836;33;20253;-80
2021/08/24 07:49:16;;;;;;;11.20;4.20;;;;;;;;;;4333304;33;20159;-79
2021/08/24 07:51:41;;;;;;;7.40;3.95;;;;;;;;;;4332788;33;20197;-79
2021/08/24 07:54:07;;;;;;;6.62;3.92;;;;;;;;;;4344823;33;20151;-79
2021/08/24 07:56:32;;;;;;;7.65;3.60;;;;;;;;;;4332228;33;20152;-79
2021/08/24 07:59:00;;;;;;;6.10;3.55;;;;;;;;;;4332356;33;20167;-79
2021/08/24 08:01:25;;;;;;;10.30;5.07;;;;;;;;;;4337580;33;20182;-79
2021/08/24 08:03:50;;;;;;;9.23;3.80;;;;;;;;;;4356970;32;20233;-78
2021/08/24 08:06:18;;;;;;;7.75;3.58;;;;;;;;;;4332652;33;20594;-81
2021/08/24 08:08:43;;;;;;;6.90;3.17;;;;;;;;;;4345837;32;20144;-79
2021/08/24 08:11:12;;;;;;;6.25;3.40;;;;;;;;;;4345865;33;20456;-79
2021/08/24 08:13:39;;;;;;;7.12;3.55;;;;;;;;;;4345123;33;20163;-80
2021/08/24 08:16:04;;;;;;;6.07;3.00;;;;;;;;;;4369746;32;20171;-79
2021/08/24 08:18:29;;;;;;;8.73;3.22;;;;;;;;;;4360892;32;20162;-80
2021/08/24 08:20:55;;;;;;;9.65;3.40;;;;;;;;;;4359264;32;20217;-73
2021/08/24 08:23:21;;;;;;;5.50;3.20;;;;;;;;;;4360374;32;20165;-79
2021/08/24 08:25:46;;;;;;;7.72;3.30;;;;;;;;;;4355568;32;20155;-80
2021/08/24 08:28:12;;;;;;;5.30;3.08;;;;;;;;;;4358757;32;20162;-79
2021/08/24 08:30:37;;;;;;;7.80;2.87;;;;;;;;;;4357399;32;20144;-80
2021/08/24 08:33:06;;;;;;;6.10;2.95;;;;;;;;;;4335666;33;20166;-82
2021/08/24 08:35:34;;;;;;;5.72;2.50;;;;;;;;;;4346342;33;20190;-80
2021/08/24 08:37:59;;;;;;;4.45;2.65;;;;;;;;;;4346972;33;20666;-79
2021/08/24 08:40:42;;;;;;;3.42;2.67;;;;;;;;;;4360568;32;20159;-77
2021/08/24 08:43:15;;;;;;;6.03;3.05;;;;;;;;;;4360948;32;20142;-80
2021/08/24 08:45:40;;;;;;;5.45;2.92;;;;;;;;;;4341305;33;20183;-80
2021/08/24 08:48:05;;;;;;;4.70;2.78;;;;;;;;;;4332720;33;20234;-80
2021/08/24 08:50:43;;;;;;;5.50;2.50;;;;;;;;;;4339151;33;20172;-80
2021/08/24 08:53:18;;;;;;;3.83;2.40;;;;;;;;;;4352509;32;20210;-80
2021/08/24 08:55:54;;;;;;;5.28;2.53;;;;;;;;;;4354583;33;20154;-77
2021/08/24 08:58:28;;;;;;;4.95;2.47;;;;;;;;;;4358611;32;20171;-80
2021/08/24 09:00:59;;;;;;;4.90;2.22;;;;;;;;;;4341584;33;20243;-79
2021/08/24 09:03:34;;;;;;;6.30;2.40;;;;;;;;;;4345508;33;20209;-81
2021/08/24 09:05:59;;;;;;;6.87;2.47;;;;;;;;;;4357190;33;20186;-79
2021/08/24 09:08:25;;;;;;;6.70;2.97;;;;;;;;;;4332208;33;20167;-79
2021/08/24 09:10:53;;;;;;;5.43;3.10;;;;;;;;;;4340213;33;20179;-80
2021/08/24 09:13:34;;;;;;;3.97;2.78;;;;;;;;;;4347602;32;20151;-80
2021/08/24 09:16:12;;;;;;;8.00;2.83;;;;;;;;;;4343632;33;20265;-79
2021/08/24 09:19:01;;;;;;;7.70;2.90;;;;;;;;;;4352875;33;20147;-80
2021/08/24 09:21:45;;;;;;;6.03;2.80;;;;;;;;;;4361185;32;20210;-81
2021/08/24 09:24:32;;;;;;;5.57;2.90;;;;;;;;;;4358905;32;20222;-80
2021/08/24 09:26:59;;;;;;;6.85;2.87;;;;;;;;;;4358952;32;20152;-80
2021/08/24 09:29:35;;;;;;;7.82;2.85;;;;;;;;;;4343644;33;20230;-80
2021/08/24 09:32:04;;;;;;;8.45;2.80;;;;;;;;;;4358349;33;20159;-80
2021/08/24 09:34:33;;;;;;;9.45;3.35;;;;;;;;;;4334214;33;20197;-81
2021/08/24 09:36:58;;;;;;;6.32;2.50;;;;;;;;;;4359446;33;20147;-79
2021/08/24 09:39:42;;;;;;;5.85;2.90;;;;;;;;;;4346732;33;20654;-79
2021/08/24 09:42:08;;;;;;;5.72;2.67;;;;;;;;;;4366896;32;20216;-80
2021/08/24 09:44:34;;;;;;;5.10;2.33;;;;;;;;;;4355863;32;20154;-81
2021/08/24 09:47:06;;;;;;;5.37;2.55;;;;;;;;;;4357572;32;20277;-80
2021/08/24 09:49:31;;;;;;;5.40;2.58;;;;;;;;;;4363791;32;20242;-80
2021/08/24 09:52:05;;;;;;;8.73;2.50;;;;;;;;;;4361565;32;20191;-80
2021/08/24 09:54:44;;;;;;;4.40;2.15;;;;;;;;;;4359855;32;20341;-79
2021/08/24 09:57:10;;;;;;;5.50;2.45;;;;;;;;;;4363454;32;20274;-78
2021/08/24 09:59:38;;;;;;;5.40;2.23;;;;;;;;;;4348821;33;20555;-80
2021/08/24 10:02:05;;;;;;;6.28;2.30;;;;;;;;;;4349362;33;20298;-80
2021/08/24 10:04:47;;;;;;;5.82;2.53;;;;;;;;;;4361332;32;20162;-80
2021/08/24 10:07:13;;;;;;;7.80;2.70;;;;;;;;;;4338481;33;20262;-79
2021/08/24 10:09:39;;;;;;;5.47;2.65;;;;;;;;;;4334893;33;20621;-81
2021/08/24 10:12:13;;;;;;;4.65;2.95;;;;;;;;;;4343603;33;20205;-80
2021/08/24 10:14:38;;;;;;;6.82;2.72;;;;;;;;;;4362590;32;20162;-79
2021/08/24 10:17:10;;;;;;;4.87;2.45;;;;;;;;;;4340736;33;20186;-79
2021/08/24 10:19:40;;;;;;;6.95;2.90;;;;;;;;;;4369586;32;20163;-80
2021/08/24 10:22:16;;;;;;;6.05;2.25;;;;;;;;;;4356900;32;20544;-80
2021/08/24 10:24:52;;;;;;;4.55;2.10;;;;;;;;;;4360286;32;20158;-81
2021/08/24 10:27:26;;;;;;;3.95;2.15;;;;;;;;;;4348004;33;20185;-79
2021/08/24 10:29:56;;;;;;;5.12;2.20;;;;;;;;;;4357005;33;20148;-80
2021/08/24 10:32:27;;;;;;;3.60;2.20;;;;;;;;;;4347299;32;20214;-80
2021/08/24 10:34:52;;;;;;;3.42;1.92;;;;;;;;;;4342648;33;20185;-80
2021/08/24 10:37:24;;;;;;;6.78;1.90;;;;;;;;;;4339103;33;20151;-81
2021/08/24 10:39:54;;;;;;;3.22;1.80;;;;;;;;;;4362044;32;20622;-79
2021/08/24 10:42:22;;;;;;;4.90;1.60;;;;;;;;;;4360595;32;20495;-80
2021/08/24 10:44:49;;;;;;;3.08;1.75;;;;;;;;;;4360522;32;20174;-80
2021/08/24 10:47:28;;;;;;;4.40;2.00;;;;;;;;;;4348360;33;20163;-80
2021/08/24 10:49:54;;;;;;;7.03;2.28;;;;;;;;;;4359819;32;20228;-80
2021/08/24 10:52:31;;;;;;;4.85;1.77;;;;;;;;;;4359809;32;20289;-80
2021/08/24 10:55:10;;;;;;;4.28;2.08;;;;;;;;;;4348899;33;20269;-80
2021/08/24 10:57:54;;;;;;;5.30;1.90;;;;;;;;;;4344167;33;20561;-80
2021/08/24 11:00:22;;;;;;;4.50;1.77;;;;;;;;;;4333085;33;20210;-80
2021/08/24 11:03:17;;;;;;;4.87;1.75;;;;;;;;;;4333996;33;20151;-80
2021/08/24 11:05:57;;;;;;;5.60;1.90;;;;;;;;;;4307130;33;20295;-80
2021/08/24 11:08:32;;;;;;;6.00;1.90;;;;;;;;;;4333310;33;20185;-81
2021/08/24 11:10:57;;;;;;;3.30;1.80;;;;;;;;;;4349441;32;20167;-80
2021/08/24 11:13:28;;;;;;;4.93;1.58;;;;;;;;;;4359207;32;20190;-81
2021/08/24 11:15:53;;;;;;;3.05;1.62;;;;;;;;;;4347420;33;20172;-80
2021/08/24 11:18:21;;;;;;;4.93;1.73;;;;;;;;;;4341996;33;20167;-80
2021/08/24 11:20:49;;;;;;;3.47;1.65;;;;;;;;;;4340519;33;20255;-80
2021/08/24 11:23:33;;;;;;;2.22;1.60;;;;;;;;;;4347400;33;20175;-81
2021/08/24 11:26:11;;;;;;;4.70;1.50;;;;;;;;;;4359858;33;20217;-81
2021/08/24 11:28:56;;;;;;;2.75;1.40;;;;;;;;;;4348142;33;20178;-82
2021/08/24 11:31:33;;;;;;;2.40;1.30;;;;;;;;;;4355126;32;20177;-83
2021/08/24 11:34:08;;;;;;;4.25;1.50;;;;;;;;;;4359387;32;20162;-80
2021/08/24 11:36:51;;;;;;;4.70;1.60;;;;;;;;;;4345635;33;20612;-82
2021/08/24 11:39:22;;;;;;;4.62;1.35;;;;;;;;;;4356501;33;20225;-81
2021/08/24 11:41:49;;;;;;;3.08;1.12;;;;;;;;;;4372573;32;20270;-80
2021/08/24 11:44:17;;;;;;;5.68;1.50;;;;;;;;;;4359884;32;20159;-81
2021/08/24 11:46:47;;;;;;;1.85;1.17;;;;;;;;;;4371161;32;20154;-82
2021/08/24 11:49:18;;;;;;;2.72;1.10;;;;;;;;;;4352220;32;20213;-81
2021/08/24 11:51:47;;;;;;;4.70;1.50;;;;;;;;;;4371654;32;20197;-82
2021/08/24 11:54:15;;;;;;;3.92;1.30;;;;;;;;;;4372675;32;20155;-82
2021/08/24 11:56:49;;;;;;;2.70;1.10;;;;;;;;;;4372290;32;20182;-81
2021/08/24 11:59:30;;;;;;;2.15;1.00;;;;;;;;;;4359790;32;20516;-81
2021/08/24 12:01:55;;;;;;;1.92;1.20;;;;;;;;;;4359647;33;20166;-82
2021/08/24 12:04:24;;;;;;;2.60;1.17;;;;;;;;;;4356838;32;20203;-82
2021/08/24 12:06:52;;;;;;;3.42;1.35;;;;;;;;;;4359396;33;20179;-81
2021/08/24 12:09:33;;;;;;;1.95;1.37;;;;;;;;;;4347612;33;20148;-82
2021/08/24 12:11:59;;;;;;;3.65;1.50;;;;;;;;;;4355138;33;20159;-82
2021/08/24 12:14:28;;;;;;;3.12;1.30;;;;;;;;;;4360887;32;20181;-82
2021/08/24 12:17:02;;;;;;;2.85;1.20;;;;;;;;;;4361369;32;20249;-82
2021/08/24 12:19:29;;;;;;;2.50;1.40;;;;;;;;;;4371620;32;20158;-83
2021/08/24 12:22:26;;;;;;;3.17;1.10;;;;;;;;;;4359473;32;20614;-79
2021/08/24 12:24:54;;;;;;;2.20;1.30;;;;;;;;;;4360863;32;20139;-81
2021/08/24 12:27:28;;;;;;;2.97;1.30;;;;;;;;;;4360598;32;20519;-83
2021/08/24 12:30:04;;;;;;;3.33;1.48;;;;;;;;;;4372197;32;20547;-83
2021/08/24 12:32:30;;;;;;;2.85;1.10;;;;;;;;;;4360864;32;20162;-83
2021/08/24 12:35:06;;;;;;;3.83;1.20;;;;;;;;;;4359311;32;20221;-81
2021/08/24 12:37:31;;;;;;;5.35;1.50;;;;;;;;;;4359754;33;20571;-83
2021/08/24 12:40:21;;;;;;;1.98;1.10;;;;;;;;;;4360609;32;20173;-82
2021/08/24 12:43:06;;;;;;;4.40;1.12;;;;;;;;;;4347381;33;20164;-80
2021/08/24 12:45:32;;;;;;;2.75;1.25;;;;;;;;;;4358485;33;20181;-81
2021/08/24 12:48:16;;;;;;;4.05;1.33;;;;;;;;;;4357184;32;20147;-81
2021/08/24 12:50:45;;;;;;;2.33;1.40;;;;;;;;;;4359129;33;20155;-82
2021/08/24 12:53:26;;;;;;;3.33;1.30;;;;;;;;;;4359008;32;20404;-82
2021/08/24 12:55:52;;;;;;;1.90;1.25;;;;;;;;;;4360457;32;20549;-81
2021/08/24 12:58:22;;;;;;;4.18;1.37;;;;;;;;;;4359701;32;20509;-82
2021/08/24 13:01:06;;;;;;;2.00;1.20;;;;;;;;;;4365142;32;20178;-82
2021/08/24 13:03:32;;;;;;;3.30;1.40;;;;;;;;;;4371941;32;20229;-81
2021/08/24 13:06:16;;;;;;;3.67;1.58;;;;;;;;;;4359480;33;20151;-83
2021/08/24 13:08:41;;;;;;;1.77;1.30;;;;;;;;;;4371900;32;20185;-83
2021/08/24 13:11:30;;;;;;;2.62;1.35;;;;;;;;;;4353107;33;20571;-83
2021/08/24 13:13:59;;;;;;;3.60;1.40;;;;;;;;;;4371873;32;20155;-82
2021/08/24 13:16:49;;;;;;;4.85;1.40;;;;;;;;;;4373176;32;20159;-82
2021/08/24 13:19:20;;;;;;;3.78;1.87;;;;;;;;;;4345348;33;20185;-84
2021/08/24 13:21:54;;;;;;;3.37;1.50;;;;;;;;;;4347141;33;20159;-84
2021/08/24 13:24:38;;;;;;;1.90;1.30;;;;;;;;;;4348016;33;20597;-83
2021/08/24 13:27:17;;;;;;;4.22;1.20;;;;;;;;;;4335376;33;20185;-84
2021/08/24 13:29:45;;;;;;;4.80;1.58;;;;;;;;;;4336257;33;20577;-84
2021/08/24 13:32:33;;;;;;;2.95;1.30;;;;;;;;;;4360719;32;20199;-84
2021/08/24 13:34:59;;;;;;;3.17;1.20;;;;;;;;;;4357702;32;20178;-84
2021/08/24 13:37:44;;;;;;;1.75;1.25;;;;;;;;;;4371559;32;20163;-84
2021/08/24 13:40:11;;;;;;;4.22;1.30;;;;;;;;;;4361906;32;20483;-85
2021/08/24 13:42:47;;;;;;;1.90;1.48;;;;;;;;;;4362023;33;20181;-83
2021/08/24 13:45:21;;;;;;;2.33;1.48;;;;;;;;;;4362136;32;20159;-84
2021/08/24 13:47:48;;;;;;;3.62;1.48;;;;;;;;;;4355367;33;20163;-85
2021/08/24 13:50:46;;;;;;;4.40;1.45;;;;;;;;;;4356739;32;20163;-84
2021/08/24 13:53:16;;;;;;;4.35;1.42;;;;;;;;;;4353479;33;20175;-83
2021/08/24 13:55:42;;;;;;;2.30;1.23;;;;;;;;;;4360944;32;20186;-84
2021/08/24 13:58:23;;;;;;;2.97;1.35;;;;;;;;;;4362416;32;20614;-86
2021/08/24 14:00:55;;;;;;;4.68;1.60;;;;;;;;;;4351482;33;20144;-84
2021/08/24 14:03:28;;;;;;;2.35;1.30;;;;;;;;;;4351073;33;20242;-84
2021/08/24 14:06:02;;;;;;;2.55;1.27;;;;;;;;;;4351383;32;20147;-85
2021/08/24 14:08:29;;;;;;;4.15;1.30;;;;;;;;;;4356728;33;20155;-80
2021/08/24 14:11:14;;;;;;;2.20;1.50;;;;;;;;;;4359450;32;20185;-85
2021/08/24 14:13:45;;;;;;;2.50;1.17;;;;;;;;;;4368644;32;20200;-82
2021/08/24 14:16:33;;;;;;;2.80;1.25;;;;;;;;;;4364246;32;20163;-84
2021/08/24 14:19:03;;;;;;;3.08;1.42;;;;;;;;;;4356291;32;20221;-85
2021/08/24 14:21:30;;;;;;;2.28;1.50;;;;;;;;;;4360100;32;20162;-84
2021/08/24 14:23:57;;;;;;;2.17;1.30;;;;;;;;;;4370811;32;20155;-85
2021/08/24 14:26:41;;;;;;;2.28;1.15;;;;;;;;;;4362051;32;20206;-87
2021/08/24 14:29:12;;;;;;;3.05;1.20;;;;;;;;;;4358502;32;20166;-83
2021/08/24 14:31:40;;;;;;;2.70;1.30;;;;;;;;;;4348930;32;20167;-85
2021/08/24 14:34:32;;;;;;;4.18;1.48;;;;;;;;;;4361955;32;20241;-87
2021/08/24 14:37:03;;;;;;;2.08;1.27;;;;;;;;;;4349746;33;20174;-84
2021/08/24 14:39:34;;;;;;;2.28;1.17;;;;;;;;;;4364314;32;20186;-84
2021/08/24 14:42:01;;;;;;;4.40;1.40;;;;;;;;;;4359129;32;20139;-81
2021/08/24 14:44:29;;;;;;;4.18;1.30;;;;;;;;;;4355975;33;20155;-83
2021/08/24 14:46:59;;;;;;;2.37;1.37;;;;;;;;;;4360919;32;20565;-84
2021/08/24 14:49:24;;;;;;;2.33;1.30;;;;;;;;;;4361166;32;20151;-83
2021/08/24 14:51:50;;;;;;;1.62;1.27;;;;;;;;;;4350371;33;20751;-84
2021/08/24 14:54:31;;;;;;;3.12;1.80;;;;;;;;;;4346555;33;20491;-84
2021/08/24 14:57:24;;;;;;;2.60;1.23;;;;;;;;;;4361494;32;20483;-84